createdAt,value
2022-08-22T00:00:49.951Z,21.45
2022-08-22T00:02:48.935Z,22.10
2022-08-22T00:02:49.934Z,21.57
2022-08-22T00:02:54.492Z,21.71
2022-08-22T00:02:57.786Z,21.59
2022-08-22T00:02:58.815Z,21.41
2022-08-22T00:02:59.281Z,21.44
2022-08-22T00:03:24.542Z,21.23
2022-08-22T00:06:01.422Z,21.39
2022-08-22T00:08:32.337Z,21.36
2022-08-22T00:11:02.602Z,21.27
2022-08-22T00:13:36.351Z,21.50
2022-08-22T00:16:13.035Z,21.25
2022-08-22T00:19:01.067Z,21.05
2022-08-22T00:21:30.512Z,21.54
2022-08-22T00:24:30.438Z,21.40
2022-08-22T00:27:07.475Z,21.12
2022-08-22T00:29:38.757Z,21.40
2022-08-22T00:32:13.935Z,21.29
2022-08-22T00:35:01.966Z,21.46
2022-08-22T00:37:34.292Z,21.30
2022-08-22T00:40:28.422Z,21.39
2022-08-22T00:43:08.485Z,21.19
2022-08-22T00:45:39.056Z,21.21
2022-08-22T00:48:14.677Z,21.27
2022-08-22T00:50:49.343Z,21.37
2022-08-22T00:53:19.600Z,21.52
2022-08-22T00:55:52.948Z,21.51
2022-08-22T00:58:49.504Z,21.47
2022-08-22T01:01:17.436Z,21.50
2022-08-22T01:03:44.803Z,21.58
2022-08-22T01:06:24.638Z,21.62
2022-08-22T01:13:05.517Z,21.56
2022-08-22T01:15:34.858Z,21.44
2022-08-22T01:18:16.981Z,21.51
2022-08-22T01:21:04.158Z,21.53
2022-08-22T01:23:52.852Z,21.56
2022-08-22T01:26:33.363Z,21.40
2022-08-22T01:29:11.201Z,21.39
2022-08-22T01:31:41.697Z,21.42
2022-08-22T01:34:16.450Z,21.43
2022-08-22T01:36:53.385Z,21.45
2022-08-22T01:39:46.790Z,21.50
2022-08-22T01:42:26.302Z,21.46
2022-08-22T01:44:53.637Z,21.45
2022-08-22T01:47:23.875Z,21.41
2022-08-22T01:49:57.217Z,21.26
2022-08-22T01:52:39.754Z,21.50
2022-08-22T01:55:12.402Z,21.49
2022-08-22T01:57:56.273Z,21.68
2022-08-22T02:00:35.360Z,21.60
2022-08-22T02:03:08.384Z,21.41
2022-08-22T02:05:37.376Z,21.73
2022-08-22T02:08:14.557Z,21.59
2022-08-22T02:10:58.030Z,21.59
2022-08-22T02:13:41.251Z,21.63
2022-08-22T02:16:16.141Z,21.72
2022-08-22T02:18:54.258Z,21.34
2022-08-22T02:21:23.581Z,21.43
2022-08-22T02:23:58.965Z,21.45
2022-08-22T02:26:26.266Z,21.45
2022-08-22T02:29:03.034Z,21.76
2022-08-22T02:31:36.739Z,21.48
2022-08-22T02:34:15.623Z,21.62
2022-08-22T02:36:47.612Z,21.65
2022-08-22T02:39:35.605Z,21.77
2022-08-22T02:42:08.446Z,21.79
2022-08-22T02:44:37.640Z,21.68
2022-08-22T02:47:25.059Z,21.61
2022-08-22T02:50:07.141Z,21.60
2022-08-22T02:53:02.699Z,21.62
2022-08-22T02:55:31.178Z,21.88
2022-08-22T02:58:07.439Z,21.73
2022-08-22T03:00:43.055Z,21.70
2022-08-22T03:03:16.433Z,21.74
2022-08-22T03:05:44.207Z,21.63
2022-08-22T03:08:21.988Z,21.57
2022-08-22T03:11:10.771Z,21.69
2022-08-22T03:14:09.497Z,21.71
2022-08-22T03:16:52.309Z,21.71
2022-08-22T03:19:22.369Z,21.58
2022-08-22T03:22:10.502Z,21.68
2022-08-22T03:24:41.208Z,21.62
2022-08-22T03:27:27.813Z,21.70
2022-08-22T03:30:05.527Z,21.81
2022-08-22T03:32:53.686Z,21.57
2022-08-22T03:35:27.553Z,21.73
2022-08-22T03:38:28.994Z,21.81
2022-08-22T03:41:10.633Z,21.81
2022-08-22T03:43:58.497Z,21.71
2022-08-22T03:46:49.556Z,21.78
2022-08-22T03:49:26.327Z,21.74
2022-08-22T03:52:13.063Z,21.89
2022-08-22T03:54:40.683Z,21.75
2022-08-22T03:57:20.922Z,21.84
2022-08-22T03:59:58.998Z,21.68
2022-08-22T04:02:41.983Z,21.56
2022-08-22T04:05:14.171Z,21.78
2022-08-22T04:08:11.259Z,21.82
2022-08-22T04:10:44.250Z,21.90
2022-08-22T04:13:25.868Z,21.79
2022-08-22T04:15:53.564Z,21.69
2022-08-22T04:18:34.086Z,21.78
2022-08-22T04:21:20.963Z,21.89
2022-08-22T04:24:13.489Z,21.84
2022-08-22T04:26:46.483Z,22.10
2022-08-22T04:29:20.157Z,21.93
2022-08-22T04:31:51.433Z,22.12
2022-08-22T04:34:21.866Z,22.10
2022-08-22T04:36:51.637Z,22.07
2022-08-22T04:39:24.044Z,22.04
2022-08-22T04:42:16.063Z,22.17
2022-08-22T04:45:05.335Z,22.32
2022-08-22T04:48:06.484Z,22.31
2022-08-22T04:54:49.491Z,22.57
2022-08-22T04:57:17.665Z,22.55
2022-08-22T04:59:46.109Z,22.59
2022-08-22T05:02:20.432Z,22.42
2022-08-22T05:04:55.596Z,22.62
2022-08-22T05:07:27.494Z,22.48
2022-08-22T05:10:11.649Z,22.52
2022-08-22T05:12:41.529Z,22.63
2022-08-22T05:15:18.982Z,22.71
2022-08-22T05:17:52.076Z,22.57
2022-08-22T05:20:22.373Z,22.77
2022-08-22T05:22:52.708Z,22.79
2022-08-22T05:25:23.227Z,22.86
2022-08-22T05:27:56.323Z,23.02
2022-08-22T05:30:26.616Z,23.08
2022-08-22T05:32:55.826Z,22.70
2022-08-22T05:35:38.280Z,23.09
2022-08-22T05:38:07.055Z,22.67
2022-08-22T05:40:37.860Z,23.19
2022-08-22T05:43:09.321Z,22.97
2022-08-22T05:45:40.262Z,23.15
2022-08-22T05:48:11.774Z,23.17
2022-08-22T05:50:43.427Z,23.00
2022-08-22T05:53:12.225Z,23.03
2022-08-22T05:56:03.104Z,23.26
2022-08-22T05:58:44.078Z,23.25
2022-08-22T06:01:28.163Z,23.52
2022-08-22T06:04:07.036Z,23.48
2022-08-22T06:06:38.059Z,23.51
2022-08-22T06:09:08.158Z,23.30
2022-08-22T06:11:35.585Z,23.27
2022-08-22T06:14:14.319Z,23.29
2022-08-22T06:16:47.582Z,23.81
2022-08-22T06:19:19.639Z,23.66
2022-08-22T06:21:58.170Z,23.81
2022-08-22T06:24:27.902Z,23.67
2022-08-22T06:26:58.354Z,23.88
2022-08-22T06:29:37.627Z,23.94
2022-08-22T06:32:30.755Z,23.92
2022-08-22T06:35:20.775Z,23.91
2022-08-22T06:37:50.168Z,24.02
2022-08-22T06:40:24.339Z,23.90
2022-08-22T06:42:56.595Z,23.57
2022-08-22T06:45:31.710Z,23.91
2022-08-22T06:48:00.976Z,23.72
2022-08-22T06:50:31.793Z,23.64
2022-08-22T06:53:01.095Z,24.04
2022-08-22T06:55:29.326Z,24.02
2022-08-22T06:58:09.362Z,24.13
2022-08-22T07:00:39.184Z,24.18
2022-08-22T07:03:08.794Z,24.53
2022-08-22T07:05:38.242Z,24.72
2022-08-22T07:08:08.744Z,24.65
2022-08-22T07:10:40.081Z,24.81
2022-08-22T07:13:14.044Z,24.66
2022-08-22T07:15:43.163Z,24.60
2022-08-22T07:18:21.410Z,25.13
2022-08-22T07:20:53.093Z,25.07
2022-08-22T07:23:41.161Z,24.76
2022-08-22T07:26:28.329Z,24.90
2022-08-22T07:29:11.398Z,24.99
2022-08-22T07:31:51.499Z,24.93
2022-08-22T07:34:21.153Z,24.90
2022-08-22T07:37:07.162Z,24.69
2022-08-22T07:40:16.196Z,25.19
2022-08-22T07:43:05.173Z,25.06
2022-08-22T07:46:16.336Z,25.38
2022-08-22T07:49:09.538Z,25.38
2022-08-22T07:51:38.150Z,25.31
2022-08-22T07:54:09.433Z,25.20
2022-08-22T07:56:42.727Z,24.98
2022-08-22T07:59:14.615Z,25.36
2022-08-22T08:01:51.213Z,25.33
2022-08-22T08:04:24.936Z,25.28
2022-08-22T08:06:55.852Z,25.49
2022-08-22T08:09:25.113Z,25.62
2022-08-22T08:11:55.382Z,25.68
2022-08-22T08:17:10.772Z,25.68
2022-08-22T08:19:44.932Z,25.70
2022-08-22T08:22:17.320Z,25.78
2022-08-22T08:24:46.225Z,25.59
2022-08-22T08:27:36.180Z,25.50
2022-08-22T08:30:20.157Z,25.60
2022-08-22T08:33:25.762Z,25.60
2022-08-22T08:36:02.514Z,25.77
2022-08-22T08:38:40.334Z,25.55
2022-08-22T08:41:28.258Z,25.67
2022-08-22T08:44:04.244Z,25.85
2022-08-22T08:46:39.238Z,25.38
2022-08-22T08:49:13.354Z,25.24
2022-08-22T08:52:00.849Z,25.25
2022-08-22T08:54:45.197Z,25.34
2022-08-22T08:57:26.414Z,25.39
2022-08-22T09:00:12.428Z,25.50
2022-08-22T09:03:07.155Z,25.68
2022-08-22T09:05:47.305Z,25.22
2022-08-22T09:08:42.223Z,25.19
2022-08-22T09:11:14.351Z,25.28
2022-08-22T09:13:50.379Z,25.34
2022-08-22T09:16:31.342Z,25.29
2022-08-22T09:19:10.509Z,25.33
2022-08-22T09:21:40.575Z,25.38
2022-08-22T09:24:30.590Z,25.62
2022-08-22T09:27:10.160Z,25.86
2022-08-22T09:29:54.767Z,25.63
2022-08-22T09:32:35.153Z,25.38
2022-08-22T09:35:08.166Z,25.74
2022-08-22T09:37:42.009Z,25.97
2022-08-22T09:40:19.662Z,25.80
2022-08-22T09:43:04.561Z,25.90
2022-08-22T09:49:27.284Z,25.65
2022-08-22T09:52:33.243Z,25.92
2022-08-22T09:55:27.897Z,25.48
2022-08-22T10:00:44.375Z,25.62
2022-08-22T10:03:19.530Z,25.99
2022-08-22T10:06:03.710Z,25.63
2022-08-22T10:08:40.179Z,25.92
2022-08-22T10:11:31.432Z,25.85
2022-08-22T10:14:04.291Z,25.81
2022-08-22T10:16:54.507Z,26.11
2022-08-22T10:19:32.125Z,25.41
2022-08-22T10:22:21.349Z,25.83
2022-08-22T10:25:01.809Z,26.16
2022-08-22T10:27:48.298Z,25.87
2022-08-22T10:30:17.630Z,25.87
2022-08-22T10:32:47.159Z,26.41
2022-08-22T10:35:27.620Z,26.44
2022-08-22T10:38:07.227Z,26.68
2022-08-22T10:40:43.353Z,26.47
2022-08-22T10:43:12.421Z,26.12
2022-08-22T10:45:44.502Z,26.33
2022-08-22T10:48:14.235Z,26.41
2022-08-22T10:50:50.235Z,26.37
2022-08-22T10:53:34.921Z,26.62
2022-08-22T10:56:06.189Z,27.11
2022-08-22T10:58:55.181Z,26.59
2022-08-22T11:01:38.034Z,26.84
2022-08-22T11:04:19.200Z,27.24
2022-08-22T11:06:57.461Z,27.25
2022-08-22T11:16:42.229Z,27.73
2022-08-22T11:19:24.232Z,27.66
2022-08-22T11:22:01.063Z,27.25
2022-08-22T11:24:34.610Z,27.50
2022-08-22T11:27:25.449Z,27.69
2022-08-22T11:30:18.188Z,27.80
2022-08-22T11:32:49.213Z,27.46
2022-08-22T11:35:20.745Z,27.22
2022-08-22T11:38:00.390Z,27.22
2022-08-22T11:40:31.246Z,27.15
2022-08-22T11:43:21.909Z,27.47
2022-08-22T11:45:53.286Z,27.56
2022-08-22T11:48:35.416Z,27.51
2022-08-22T11:51:13.663Z,27.79
2022-08-22T11:54:12.248Z,27.53
2022-08-22T11:56:43.515Z,27.90
2022-08-22T11:59:18.554Z,27.98
2022-08-22T12:02:03.943Z,27.76
2022-08-22T12:04:54.466Z,27.45
2022-08-22T12:07:30.400Z,27.62
2022-08-22T12:10:16.986Z,27.34
2022-08-22T12:12:50.479Z,27.95
2022-08-22T12:15:25.980Z,27.49
2022-08-22T12:18:14.354Z,27.66
2022-08-22T12:20:55.281Z,27.30
2022-08-22T12:23:49.460Z,27.14
2022-08-22T12:26:30.312Z,27.75
2022-08-22T12:29:02.363Z,28.12
2022-08-22T12:31:35.519Z,27.99
2022-08-22T12:34:32.164Z,27.94
2022-08-22T12:37:04.569Z,27.52
2022-08-22T12:39:51.775Z,27.73
2022-08-22T12:42:27.494Z,28.23
2022-08-22T12:45:04.418Z,27.80
2022-08-22T12:47:42.430Z,27.73
2022-08-22T12:50:18.276Z,27.64
2022-08-22T12:52:54.483Z,27.73
2022-08-22T12:55:41.664Z,27.62
2022-08-22T12:58:22.423Z,26.72
2022-08-22T13:00:53.454Z,26.45
2022-08-22T13:03:45.562Z,26.51
2022-08-22T13:06:35.327Z,26.51
2022-08-22T13:09:39.239Z,26.39
2022-08-22T13:12:19.962Z,25.87
2022-08-22T13:15:04.264Z,25.51
2022-08-22T13:17:36.764Z,25.88
2022-08-22T13:20:12.680Z,25.43
2022-08-22T13:22:45.353Z,25.50
2022-08-22T13:25:25.459Z,25.35
2022-08-22T13:28:02.571Z,25.34
2022-08-22T13:30:37.625Z,25.76
2022-08-22T13:33:10.281Z,26.01
2022-08-22T13:38:29.382Z,25.88
2022-08-22T13:40:59.379Z,25.61
2022-08-22T13:43:30.406Z,25.94
2022-08-22T13:46:02.448Z,26.17
2022-08-22T13:48:56.665Z,25.96
2022-08-22T13:54:13.504Z,27.13
2022-08-22T14:00:05.842Z,26.84
2022-08-22T14:05:30.279Z,26.38
2022-08-22T14:08:04.829Z,27.17
2022-08-22T14:10:46.433Z,27.30
2022-08-22T14:13:41.526Z,27.47
2022-08-22T14:16:28.316Z,27.28
2022-08-22T14:21:41.304Z,26.99
2022-08-22T14:24:14.363Z,27.24
2022-08-22T14:26:51.379Z,27.02
2022-08-22T14:29:21.533Z,27.05
2022-08-22T14:32:00.505Z,27.25
2022-08-22T14:34:29.597Z,27.01
2022-08-22T14:37:07.591Z,26.56
2022-08-22T14:39:47.098Z,26.13
2022-08-22T14:42:30.071Z,26.57
2022-08-22T14:45:06.649Z,26.41
2022-08-22T14:47:55.151Z,26.39
2022-08-22T14:50:54.327Z,26.08
2022-08-22T14:53:30.172Z,26.39
2022-08-22T14:56:04.311Z,26.33
2022-08-22T14:58:36.410Z,26.11
2022-08-22T15:01:11.463Z,25.91
2022-08-22T15:03:42.499Z,26.14
2022-08-22T15:06:17.869Z,26.15
2022-08-22T15:08:55.377Z,26.06
2022-08-22T15:11:33.380Z,25.86
2022-08-22T15:14:13.492Z,26.01
2022-08-22T15:16:44.314Z,25.57
2022-08-22T15:22:25.829Z,25.82
2022-08-22T15:25:04.634Z,26.01
2022-08-22T15:28:00.309Z,26.31
2022-08-22T15:33:25.273Z,26.17
2022-08-22T15:38:40.088Z,25.78
2022-08-22T15:41:31.095Z,25.38
2022-08-22T15:44:08.017Z,25.47
2022-08-22T15:46:45.440Z,25.34
2022-08-22T15:49:22.402Z,25.14
2022-08-22T15:54:51.250Z,25.40
2022-08-22T15:57:26.334Z,25.42
2022-08-22T16:00:18.870Z,25.31
2022-08-22T16:02:58.267Z,25.39
2022-08-22T16:08:16.887Z,25.27
2022-08-22T16:10:50.536Z,24.63
2022-08-22T16:13:27.274Z,24.75
2022-08-22T16:16:01.297Z,24.77
2022-08-22T16:18:38.277Z,24.69
2022-08-22T16:21:09.901Z,24.38
2022-08-22T16:23:51.145Z,24.49
2022-08-22T16:26:23.282Z,24.43
2022-08-22T16:28:59.517Z,24.60
2022-08-22T16:31:56.677Z,24.35
2022-08-22T16:37:31.454Z,23.99
2022-08-22T16:40:05.266Z,24.14
2022-08-22T16:42:38.653Z,24.25
2022-08-22T16:45:25.303Z,24.48
2022-08-22T16:48:09.030Z,24.45
2022-08-22T16:50:43.488Z,24.21
2022-08-22T16:53:28.848Z,24.16
2022-08-22T16:56:11.324Z,23.89
2022-08-22T16:59:03.378Z,24.01
2022-08-22T17:02:00.602Z,23.84
2022-08-22T17:07:22.566Z,24.15
2022-08-22T17:10:00.838Z,24.07
2022-08-22T17:12:38.337Z,23.98
2022-08-22T17:15:12.283Z,24.30
2022-08-22T17:17:53.882Z,24.30
2022-08-22T17:20:32.714Z,23.98
2022-08-22T17:23:14.290Z,24.03
2022-08-22T17:25:46.314Z,23.85
2022-08-22T17:28:42.742Z,24.06
2022-08-22T17:31:12.992Z,23.84
2022-08-22T17:33:52.955Z,24.01
2022-08-22T17:39:15.424Z,23.98
2022-08-22T17:41:56.211Z,24.08
2022-08-22T17:47:52.873Z,23.92
2022-08-22T17:50:43.347Z,23.80
2022-08-22T17:53:24.555Z,23.52
2022-08-22T17:56:14.210Z,23.64
2022-08-22T17:59:02.529Z,23.20
2022-08-22T18:09:58.348Z,23.72
2022-08-22T18:18:17.446Z,23.57
2022-08-22T18:20:58.156Z,23.44
2022-08-22T18:23:40.570Z,23.75
2022-08-22T18:26:27.094Z,23.16
2022-08-22T18:34:33.705Z,23.56
2022-08-22T18:37:25.618Z,23.41
2022-08-22T18:42:56.200Z,23.30
2022-08-22T18:45:44.809Z,23.37
2022-08-22T18:51:30.720Z,23.37
2022-08-22T18:56:52.339Z,23.55
2022-08-22T18:59:32.805Z,23.24
2022-08-22T19:02:23.441Z,23.54
2022-08-22T19:08:02.830Z,23.44
2022-08-22T19:10:43.925Z,23.21
2022-08-22T19:19:17.173Z,23.37
2022-08-22T19:22:19.753Z,23.20
2022-08-22T19:27:44.741Z,23.23
2022-08-22T19:33:38.678Z,23.25
2022-08-22T19:41:52.681Z,22.92
2022-08-22T19:47:17.834Z,22.91
2022-08-22T19:49:50.385Z,23.00
2022-08-22T20:03:34.592Z,23.02
2022-08-22T20:06:33.563Z,22.81
2022-08-22T20:09:09.509Z,23.11
2022-08-22T20:11:46.965Z,22.80
2022-08-22T20:14:18.361Z,23.10
2022-08-22T20:16:56.726Z,23.04
2022-08-22T20:19:42.633Z,23.20
2022-08-22T20:22:18.710Z,22.97
2022-08-22T20:24:59.356Z,23.12
2022-08-22T20:27:27.443Z,23.12
2022-08-22T20:30:07.815Z,23.09
2022-08-22T20:32:49.228Z,23.05
2022-08-22T20:35:26.569Z,23.35
2022-08-22T20:38:06.686Z,23.00
2022-08-22T20:41:01.754Z,22.80
2022-08-22T20:43:49.301Z,23.05
2022-08-22T20:46:24.476Z,23.08
2022-08-22T20:48:55.117Z,23.11
2022-08-22T20:51:33.829Z,23.13
2022-08-22T20:54:09.971Z,23.13
2022-08-22T20:57:01.383Z,22.90
2022-08-22T20:59:38.250Z,23.03
2022-08-22T21:02:08.418Z,22.98
2022-08-22T21:04:47.406Z,22.81
2022-08-22T21:07:28.690Z,22.68
2022-08-22T21:10:22.067Z,22.91
2022-08-22T21:13:09.844Z,22.43
2022-08-22T21:15:39.582Z,22.52
2022-08-22T21:18:07.119Z,22.40
2022-08-22T21:20:40.891Z,22.60
2022-08-22T21:23:15.566Z,22.14
2022-08-22T21:25:58.022Z,22.35
2022-08-22T21:28:34.566Z,22.73
2022-08-22T21:31:08.779Z,22.57
2022-08-22T21:33:41.629Z,22.45
2022-08-22T21:36:25.536Z,22.28
2022-08-22T21:39:13.315Z,22.61
2022-08-22T21:42:07.808Z,22.31
2022-08-22T21:44:59.289Z,22.32
2022-08-22T21:47:53.138Z,22.32
2022-08-22T21:50:38.136Z,22.48
2022-08-22T21:53:29.445Z,22.52
2022-08-22T21:56:12.676Z,22.43
2022-08-22T21:59:50.446Z,22.28
2022-08-22T22:02:29.472Z,22.32
2022-08-22T22:04:59.887Z,22.16
2022-08-22T22:07:27.275Z,22.52
2022-08-22T22:09:55.202Z,22.36
2022-08-22T22:12:25.642Z,22.36
2022-08-22T22:14:53.327Z,22.24
2022-08-22T22:17:20.617Z,22.16
2022-08-22T22:19:48.479Z,22.39
2022-08-22T22:22:18.256Z,22.41
2022-08-22T22:24:45.699Z,22.20
2022-08-22T22:27:16.923Z,22.42
2022-08-22T22:29:45.330Z,22.07
2022-08-22T22:32:12.850Z,22.32
2022-08-22T22:34:40.900Z,22.38
2022-08-22T22:37:09.382Z,22.24
2022-08-22T22:39:36.914Z,22.29
2022-08-22T22:42:09.382Z,22.27
2022-08-22T22:44:37.038Z,21.90
2022-08-22T22:47:05.252Z,22.12
2022-08-22T22:49:33.401Z,22.37
2022-08-22T22:52:00.776Z,22.20
2022-08-22T22:54:29.716Z,22.24
2022-08-22T22:56:58.521Z,22.12
2022-08-22T22:59:26.441Z,22.49
2022-08-22T23:02:15.501Z,22.45
2022-08-22T23:04:44.727Z,22.64
2022-08-22T23:07:13.535Z,22.56
2022-08-22T23:09:44.901Z,22.08
2022-08-22T23:12:15.645Z,22.23
2022-08-22T23:14:45.195Z,22.47
2022-08-22T23:17:12.774Z,22.61
2022-08-22T23:19:42.401Z,22.62
2022-08-22T23:22:13.984Z,22.61
2022-08-22T23:24:42.830Z,22.41
2022-08-22T23:27:11.175Z,22.38
2022-08-22T23:29:44.338Z,21.98
2022-08-22T23:32:12.660Z,22.27
2022-08-22T23:34:46.341Z,22.27
2022-08-22T23:37:21.788Z,22.18
2022-08-22T23:40:10.692Z,22.13
2022-08-22T23:42:59.400Z,22.35
2022-08-22T23:45:43.966Z,22.28
2022-08-22T23:48:11.843Z,22.23
2022-08-22T23:50:39.206Z,22.47
2022-08-22T23:53:06.807Z,22.46
2022-08-22T23:55:34.376Z,22.52
2022-08-22T23:58:02.057Z,22.47
